sensor_id;sensor_type;location;lat;lon;timestamp;P1;durP1;ratioP1;P2;durP2;ratioP2
74636;SDS011;63141;54.616;39.754;2023-03-23T00:00:40;1.98;;;1.00;;
74636;SDS011;63141;54.616;39.754;2023-03-23T00:03:50;2.60;;;1.23;;
74636;SDS011;63141;54.616;39.754;2023-03-23T00:06:53;1.30;;;0.95;;
74636;SDS011;63141;54.616;39.754;2023-03-23T00:09:55;2.60;;;1.30;;
74636;SDS011;63141;54.616;39.754;2023-03-23T00:12:56;2.35;;;1.23;;
74636;SDS011;63141;54.616;39.754;2023-03-23T00:15:58;3.05;;;1.20;;
74636;SDS011;63141;54.616;39.754;2023-03-23T00:19:04;2.22;;;1.20;;
74636;SDS011;63141;54.616;39.754;2023-03-23T00:22:07;3.67;;;1.35;;
74636;SDS011;63141;54.616;39.754;2023-03-23T00:25:08;2.63;;;1.27;;
74636;SDS011;63141;54.616;39.754;2023-03-23T00:28:09;3.58;;;1.40;;
74636;SDS011;63141;54.616;39.754;2023-03-23T00:31:13;1.60;;;1.20;;
74636;SDS011;63141;54.616;39.754;2023-03-23T00:34:15;2.00;;;1.40;;
74636;SDS011;63141;54.616;39.754;2023-03-23T00:37:20;2.72;;;1.15;;
74636;SDS011;63141;54.616;39.754;2023-03-23T00:40:22;2.00;;;1.15;;
74636;SDS011;63141;54.616;39.754;2023-03-23T00:43:23;2.20;;;1.17;;
74636;SDS011;63141;54.616;39.754;2023-03-23T00:46:25;2.40;;;1.20;;
74636;SDS011;63141;54.616;39.754;2023-03-23T00:49:28;4.10;;;1.63;;
74636;SDS011;63141;54.616;39.754;2023-03-23T00:52:30;2.22;;;1.17;;
74636;SDS011;63141;54.616;39.754;2023-03-23T00:55:31;4.82;;;1.23;;
74636;SDS011;63141;54.616;39.754;2023-03-23T00:58:35;1.63;;;0.85;;
74636;SDS011;63141;54.616;39.754;2023-03-23T01:01:36;1.08;;;0.80;;
74636;SDS011;63141;54.616;39.754;2023-03-23T01:04:43;2.10;;;1.20;;
74636;SDS011;63141;54.616;39.754;2023-03-23T01:07:52;1.52;;;0.90;;
74636;SDS011;63141;54.616;39.754;2023-03-23T01:11:00;3.38;;;1.00;;
74636;SDS011;63141;54.616;39.754;2023-03-23T01:14:04;1.65;;;1.02;;
74636;SDS011;63141;54.616;39.754;2023-03-23T01:17:06;1.45;;;1.00;;
74636;SDS011;63141;54.616;39.754;2023-03-23T01:20:09;2.97;;;1.20;;
74636;SDS011;63141;54.616;39.754;2023-03-23T01:23:12;2.45;;;1.27;;
74636;SDS011;63141;54.616;39.754;2023-03-23T01:26:15;2.15;;;1.20;;
74636;SDS011;63141;54.616;39.754;2023-03-23T01:29:18;1.63;;;1.00;;
74636;SDS011;63141;54.616;39.754;2023-03-23T01:32:19;2.05;;;1.08;;
74636;SDS011;63141;54.616;39.754;2023-03-23T01:35:26;3.17;;;1.20;;
74636;SDS011;63141;54.616;39.754;2023-03-23T01:38:27;2.92;;;1.20;;
74636;SDS011;63141;54.616;39.754;2023-03-23T01:41:29;3.05;;;1.33;;
74636;SDS011;63141;54.616;39.754;2023-03-23T01:47:40;1.10;;;1.00;;
74636;SDS011;63141;54.616;39.754;2023-03-23T01:50:43;2.35;;;1.17;;
74636;SDS011;63141;54.616;39.754;2023-03-23T01:53:54;1.75;;;1.05;;
74636;SDS011;63141;54.616;39.754;2023-03-23T01:57:02;1.30;;;1.00;;
74636;SDS011;63141;54.616;39.754;2023-03-23T02:00:08;1.52;;;1.20;;
74636;SDS011;63141;54.616;39.754;2023-03-23T02:03:18;1.25;;;0.95;;
74636;SDS011;63141;54.616;39.754;2023-03-23T02:06:21;2.30;;;1.30;;
74636;SDS011;63141;54.616;39.754;2023-03-23T02:09:57;1.73;;;1.00;;
74636;SDS011;63141;54.616;39.754;2023-03-23T02:13:02;2.70;;;1.10;;
74636;SDS011;63141;54.616;39.754;2023-03-23T02:16:13;1.13;;;0.90;;
74636;SDS011;63141;54.616;39.754;2023-03-23T02:36:34;1.83;;;0.90;;
74636;SDS011;63141;54.616;39.754;2023-03-23T02:39:42;2.10;;;1.00;;
74636;SDS011;63141;54.616;39.754;2023-03-23T02:42:49;2.15;;;1.00;;
74636;SDS011;63141;54.616;39.754;2023-03-23T02:45:54;2.13;;;1.13;;
74636;SDS011;63141;54.616;39.754;2023-03-23T02:48:58;1.42;;;1.02;;
74636;SDS011;63141;54.616;39.754;2023-03-23T02:52:02;1.90;;;0.93;;
74636;SDS011;63141;54.616;39.754;2023-03-23T02:55:18;2.70;;;1.30;;
74636;SDS011;63141;54.616;39.754;2023-03-23T02:58:24;1.63;;;1.20;;
74636;SDS011;63141;54.616;39.754;2023-03-23T03:04:36;1.38;;;1.10;;
74636;SDS011;63141;54.616;39.754;2023-03-23T03:14:12;1.50;;;1.10;;
74636;SDS011;63141;54.616;39.754;2023-03-23T03:17:25;1.70;;;1.10;;
74636;SDS011;63141;54.616;39.754;2023-03-23T03:20:29;1.77;;;1.25;;
74636;SDS011;63141;54.616;39.754;2023-03-23T03:23:33;2.30;;;1.20;;
74636;SDS011;63141;54.616;39.754;2023-03-23T03:26:39;1.35;;;1.05;;
74636;SDS011;63141;54.616;39.754;2023-03-23T03:29:58;2.85;;;1.20;;
74636;SDS011;63141;54.616;39.754;2023-03-23T03:33:01;1.83;;;1.10;;
74636;SDS011;63141;54.616;39.754;2023-03-23T03:36:05;1.50;;;1.10;;
74636;SDS011;63141;54.616;39.754;2023-03-23T03:39:11;2.08;;;1.20;;
74636;SDS011;63141;54.616;39.754;2023-03-23T03:42:17;1.10;;;0.93;;
74636;SDS011;63141;54.616;39.754;2023-03-23T03:45:19;2.75;;;1.00;;
74636;SDS011;63141;54.616;39.754;2023-03-23T03:48:20;1.55;;;1.00;;
74636;SDS011;63141;54.616;39.754;2023-03-23T03:51:22;6.57;;;1.20;;
74636;SDS011;63141;54.616;39.754;2023-03-23T03:54:26;3.15;;;1.20;;
74636;SDS011;63141;54.616;39.754;2023-03-23T03:57:28;3.85;;;1.10;;
74636;SDS011;63141;54.616;39.754;2023-03-23T04:00:32;2.97;;;1.38;;
74636;SDS011;63141;54.616;39.754;2023-03-23T04:03:38;1.38;;;0.90;;
74636;SDS011;63141;54.616;39.754;2023-03-23T04:06:56;2.33;;;1.15;;
74636;SDS011;63141;54.616;39.754;2023-03-23T04:09:58;2.13;;;1.10;;
74636;SDS011;63141;54.616;39.754;2023-03-23T04:12:59;1.48;;;1.20;;
74636;SDS011;63141;54.616;39.754;2023-03-23T04:16:24;2.78;;;1.08;;
74636;SDS011;63141;54.616;39.754;2023-03-23T04:19:28;2.78;;;1.20;;
74636;SDS011;63141;54.616;39.754;2023-03-23T04:22:34;2.53;;;1.10;;
74636;SDS011;63141;54.616;39.754;2023-03-23T04:25:36;2.70;;;1.15;;
74636;SDS011;63141;54.616;39.754;2023-03-23T04:28:40;1.05;;;0.85;;
74636;SDS011;63141;54.616;39.754;2023-03-23T04:32:00;1.58;;;1.25;;
74636;SDS011;63141;54.616;39.754;2023-03-23T04:35:16;1.30;;;1.00;;
74636;SDS011;63141;54.616;39.754;2023-03-23T04:38:25;1.77;;;1.10;;
74636;SDS011;63141;54.616;39.754;2023-03-23T04:41:33;1.55;;;1.00;;
74636;SDS011;63141;54.616;39.754;2023-03-23T04:44:53;1.60;;;0.95;;
74636;SDS011;63141;54.616;39.754;2023-03-23T04:48:03;1.40;;;1.15;;
74636;SDS011;63141;54.616;39.754;2023-03-23T04:51:20;2.20;;;1.40;;
74636;SDS011;63141;54.616;39.754;2023-03-23T04:54:24;2.72;;;1.20;;
74636;SDS011;63141;54.616;39.754;2023-03-23T04:57:30;1.48;;;0.93;;
74636;SDS011;63141;54.616;39.754;2023-03-23T05:01:10;1.63;;;1.10;;
74636;SDS011;63141;54.616;39.754;2023-03-23T05:04:25;1.92;;;1.02;;
74636;SDS011;63141;54.616;39.754;2023-03-23T05:07:37;1.48;;;0.98;;
74636;SDS011;63141;54.616;39.754;2023-03-23T05:10:39;1.77;;;1.10;;
74636;SDS011;63141;54.616;39.754;2023-03-23T05:13:45;1.88;;;0.90;;
74636;SDS011;63141;54.616;39.754;2023-03-23T05:16:47;1.70;;;1.20;;
74636;SDS011;63141;54.616;39.754;2023-03-23T05:19:52;1.88;;;1.13;;
74636;SDS011;63141;54.616;39.754;2023-03-23T05:23:26;2.05;;;1.38;;
74636;SDS011;63141;54.616;39.754;2023-03-23T05:26:35;1.42;;;1.00;;
74636;SDS011;63141;54.616;39.754;2023-03-23T05:29:48;1.35;;;1.17;;
74636;SDS011;63141;54.616;39.754;2023-03-23T05:32:50;2.58;;;1.25;;
74636;SDS011;63141;54.616;39.754;2023-03-23T05:36:11;1.17;;;0.90;;
74636;SDS011;63141;54.616;39.754;2023-03-23T05:39:40;1.10;;;1.00;;
74636;SDS011;63141;54.616;39.754;2023-03-23T05:43:05;1.80;;;1.20;;
74636;SDS011;63141;54.616;39.754;2023-03-23T05:46:17;1.95;;;1.10;;
74636;SDS011;63141;54.616;39.754;2023-03-23T05:49:20;0.95;;;0.80;;
74636;SDS011;63141;54.616;39.754;2023-03-23T05:52:22;2.80;;;1.08;;
74636;SDS011;63141;54.616;39.754;2023-03-23T05:55:28;2.53;;;1.37;;
74636;SDS011;63141;54.616;39.754;2023-03-23T05:58:39;1.27;;;1.10;;
74636;SDS011;63141;54.616;39.754;2023-03-23T06:01:41;3.30;;;1.50;;
74636;SDS011;63141;54.616;39.754;2023-03-23T06:04:48;1.92;;;1.25;;
74636;SDS011;63141;54.616;39.754;2023-03-23T06:07:59;3.05;;;1.17;;
74636;SDS011;63141;54.616;39.754;2023-03-23T06:11:01;2.92;;;1.67;;
74636;SDS011;63141;54.616;39.754;2023-03-23T06:14:05;2.63;;;1.45;;
74636;SDS011;63141;54.616;39.754;2023-03-23T06:17:06;2.40;;;1.42;;
74636;SDS011;63141;54.616;39.754;2023-03-23T06:20:09;1.92;;;1.30;;
74636;SDS011;63141;54.616;39.754;2023-03-23T06:23:13;4.10;;;1.40;;
74636;SDS011;63141;54.616;39.754;2023-03-23T06:26:16;3.28;;;1.63;;
74636;SDS011;63141;54.616;39.754;2023-03-23T06:29:23;2.17;;;1.38;;
74636;SDS011;63141;54.616;39.754;2023-03-23T06:32:29;2.58;;;1.45;;
74636;SDS011;63141;54.616;39.754;2023-03-23T06:35:32;1.88;;;1.42;;
74636;SDS011;63141;54.616;39.754;2023-03-23T06:38:57;1.85;;;1.40;;
74636;SDS011;63141;54.616;39.754;2023-03-23T06:42:11;3.03;;;1.63;;
74636;SDS011;63141;54.616;39.754;2023-03-23T06:45:17;3.38;;;1.58;;
74636;SDS011;63141;54.616;39.754;2023-03-23T06:48:24;3.47;;;1.90;;
74636;SDS011;63141;54.616;39.754;2023-03-23T06:51:26;2.00;;;1.45;;
74636;SDS011;63141;54.616;39.754;2023-03-23T06:54:29;2.45;;;1.52;;
74636;SDS011;63141;54.616;39.754;2023-03-23T06:57:33;2.40;;;1.70;;
74636;SDS011;63141;54.616;39.754;2023-03-23T07:00:35;2.45;;;1.67;;
74636;SDS011;63141;54.616;39.754;2023-03-23T07:03:43;3.55;;;1.63;;
74636;SDS011;63141;54.616;39.754;2023-03-23T07:06:49;3.40;;;1.80;;
74636;SDS011;63141;54.616;39.754;2023-03-23T07:09:51;2.13;;;1.63;;
74636;SDS011;63141;54.616;39.754;2023-03-23T07:12:56;5.53;;;1.90;;
74636;SDS011;63141;54.616;39.754;2023-03-23T07:15:59;2.33;;;1.60;;
74636;SDS011;63141;54.616;39.754;2023-03-23T07:19:02;2.40;;;1.63;;
74636;SDS011;63141;54.616;39.754;2023-03-23T07:22:05;2.45;;;1.65;;
74636;SDS011;63141;54.616;39.754;2023-03-23T07:25:08;3.00;;;1.77;;
74636;SDS011;63141;54.616;39.754;2023-03-23T07:28:26;5.28;;;1.88;;
74636;SDS011;63141;54.616;39.754;2023-03-23T07:31:33;3.25;;;2.08;;
74636;SDS011;63141;54.616;39.754;2023-03-23T07:34:34;4.15;;;1.85;;
74636;SDS011;63141;54.616;39.754;2023-03-23T07:37:45;5.70;;;2.38;;
74636;SDS011;63141;54.616;39.754;2023-03-23T07:40:50;4.32;;;2.03;;
74636;SDS011;63141;54.616;39.754;2023-03-23T07:43:54;2.72;;;2.03;;
74636;SDS011;63141;54.616;39.754;2023-03-23T07:47:04;3.67;;;2.00;;
74636;SDS011;63141;54.616;39.754;2023-03-23T07:50:07;3.63;;;2.22;;
74636;SDS011;63141;54.616;39.754;2023-03-23T07:53:14;3.45;;;2.05;;
74636;SDS011;63141;54.616;39.754;2023-03-23T07:56:18;3.05;;;1.92;;
74636;SDS011;63141;54.616;39.754;2023-03-23T07:59:33;3.33;;;2.05;;
74636;SDS011;63141;54.616;39.754;2023-03-23T08:02:37;3.28;;;1.90;;
74636;SDS011;63141;54.616;39.754;2023-03-23T08:06:04;2.88;;;1.67;;
74636;SDS011;63141;54.616;39.754;2023-03-23T08:09:29;3.38;;;1.83;;
74636;SDS011;63141;54.616;39.754;2023-03-23T08:12:50;2.67;;;1.90;;
74636;SDS011;63141;54.616;39.754;2023-03-23T08:16:13;3.40;;;2.30;;
74636;SDS011;63141;54.616;39.754;2023-03-23T08:19:39;6.07;;;2.05;;
74636;SDS011;63141;54.616;39.754;2023-03-23T08:23:01;3.45;;;1.98;;
74636;SDS011;63141;54.616;39.754;2023-03-23T08:26:32;3.85;;;2.00;;
74636;SDS011;63141;54.616;39.754;2023-03-23T08:29:52;2.70;;;2.00;;
74636;SDS011;63141;54.616;39.754;2023-03-23T08:33:13;4.32;;;2.30;;
74636;SDS011;63141;54.616;39.754;2023-03-23T08:36:32;2.72;;;1.70;;
74636;SDS011;63141;54.616;39.754;2023-03-23T08:40:00;2.58;;;2.00;;
74636;SDS011;63141;54.616;39.754;2023-03-23T08:43:34;4.45;;;2.22;;
74636;SDS011;63141;54.616;39.754;2023-03-23T08:47:08;3.08;;;2.10;;
74636;SDS011;63141;54.616;39.754;2023-03-23T08:50:33;4.97;;;2.58;;
74636;SDS011;63141;54.616;39.754;2023-03-23T08:53:39;2.55;;;2.08;;
74636;SDS011;63141;54.616;39.754;2023-03-23T08:57:00;5.82;;;2.35;;
74636;SDS011;63141;54.616;39.754;2023-03-23T09:00:19;2.85;;;1.98;;
74636;SDS011;63141;54.616;39.754;2023-03-23T09:03:52;6.35;;;2.80;;
74636;SDS011;63141;54.616;39.754;2023-03-23T09:07:13;4.28;;;2.63;;
74636;SDS011;63141;54.616;39.754;2023-03-23T09:10:15;3.28;;;2.28;;
74636;SDS011;63141;54.616;39.754;2023-03-23T09:13:17;4.03;;;2.58;;
74636;SDS011;63141;54.616;39.754;2023-03-23T09:16:18;3.58;;;2.40;;
74636;SDS011;63141;54.616;39.754;2023-03-23T09:19:20;3.58;;;2.60;;
74636;SDS011;63141;54.616;39.754;2023-03-23T09:22:21;3.63;;;2.45;;
74636;SDS011;63141;54.616;39.754;2023-03-23T09:25:25;4.85;;;2.78;;
74636;SDS011;63141;54.616;39.754;2023-03-23T09:28:28;5.57;;;3.38;;
74636;SDS011;63141;54.616;39.754;2023-03-23T09:31:29;5.28;;;3.05;;
74636;SDS011;63141;54.616;39.754;2023-03-23T09:34:32;3.92;;;2.40;;
74636;SDS011;63141;54.616;39.754;2023-03-23T09:37:36;5.82;;;3.10;;
74636;SDS011;63141;54.616;39.754;2023-03-23T09:40:42;5.78;;;3.10;;
74636;SDS011;63141;54.616;39.754;2023-03-23T09:47:15;4.57;;;3.38;;
74636;SDS011;63141;54.616;39.754;2023-03-23T09:50:25;13.63;;;9.30;;
74636;SDS011;63141;54.616;39.754;2023-03-23T09:53:36;14.75;;;9.43;;
74636;SDS011;63141;54.616;39.754;2023-03-23T09:56:40;13.82;;;8.73;;
74636;SDS011;63141;54.616;39.754;2023-03-23T10:06:18;15.98;;;8.93;;
74636;SDS011;63141;54.616;39.754;2023-03-23T10:09:22;11.65;;;8.13;;
74636;SDS011;63141;54.616;39.754;2023-03-23T10:12:36;17.70;;;8.25;;
74636;SDS011;63141;54.616;39.754;2023-03-23T10:15:59;11.90;;;7.75;;
74636;SDS011;63141;54.616;39.754;2023-03-23T10:19:10;16.08;;;9.27;;
74636;SDS011;63141;54.616;39.754;2023-03-23T10:22:17;15.55;;;8.25;;
74636;SDS011;63141;54.616;39.754;2023-03-23T10:25:32;16.63;;;9.43;;
74636;SDS011;63141;54.616;39.754;2023-03-23T10:28:44;23.75;;;11.02;;
74636;SDS011;63141;54.616;39.754;2023-03-23T10:32:04;14.82;;;8.93;;
74636;SDS011;63141;54.616;39.754;2023-03-23T10:38:43;16.55;;;9.10;;
74636;SDS011;63141;54.616;39.754;2023-03-23T10:44:53;18.98;;;10.13;;
74636;SDS011;63141;54.616;39.754;2023-03-23T10:51:28;19.05;;;10.18;;
74636;SDS011;63141;54.616;39.754;2023-03-23T10:54:36;21.33;;;10.55;;
74636;SDS011;63141;54.616;39.754;2023-03-23T10:57:43;18.10;;;10.80;;
74636;SDS011;63141;54.616;39.754;2023-03-23T11:00:46;21.88;;;10.40;;
74636;SDS011;63141;54.616;39.754;2023-03-23T11:03:53;23.80;;;12.50;;
74636;SDS011;63141;54.616;39.754;2023-03-23T11:06:57;21.70;;;10.80;;
74636;SDS011;63141;54.616;39.754;2023-03-23T11:13:18;20.77;;;11.00;;
74636;SDS011;63141;54.616;39.754;2023-03-23T11:16:25;17.98;;;10.95;;
74636;SDS011;63141;54.616;39.754;2023-03-23T11:19:29;19.10;;;11.63;;
74636;SDS011;63141;54.616;39.754;2023-03-23T11:22:32;15.60;;;10.15;;
74636;SDS011;63141;54.616;39.754;2023-03-23T11:25:39;16.60;;;9.82;;
74636;SDS011;63141;54.616;39.754;2023-03-23T11:29:04;15.43;;;9.50;;
74636;SDS011;63141;54.616;39.754;2023-03-23T11:32:12;16.23;;;9.27;;
74636;SDS011;63141;54.616;39.754;2023-03-23T11:35:18;14.77;;;9.82;;
74636;SDS011;63141;54.616;39.754;2023-03-23T11:38:29;19.73;;;10.07;;
74636;SDS011;63141;54.616;39.754;2023-03-23T11:41:35;14.90;;;9.63;;
74636;SDS011;63141;54.616;39.754;2023-03-23T11:44:42;13.38;;;8.70;;
74636;SDS011;63141;54.616;39.754;2023-03-23T11:51:20;13.90;;;8.70;;
74636;SDS011;63141;54.616;39.754;2023-03-23T11:54:35;16.65;;;8.70;;
74636;SDS011;63141;54.616;39.754;2023-03-23T11:57:41;15.25;;;7.75;;
74636;SDS011;63141;54.616;39.754;2023-03-23T12:14:41;11.15;;;7.05;;
74636;SDS011;63141;54.616;39.754;2023-03-23T12:18:02;15.23;;;7.50;;
74636;SDS011;63141;54.616;39.754;2023-03-23T12:27:45;14.57;;;8.98;;
74636;SDS011;63141;54.616;39.754;2023-03-23T12:31:11;14.18;;;8.80;;
74636;SDS011;63141;54.616;39.754;2023-03-23T12:44:10;14.88;;;8.55;;
74636;SDS011;63141;54.616;39.754;2023-03-23T12:50:38;13.45;;;8.60;;
74636;SDS011;63141;54.616;39.754;2023-03-23T12:57:17;14.63;;;9.55;;
74636;SDS011;63141;54.616;39.754;2023-03-23T13:00:28;13.93;;;9.32;;
74636;SDS011;63141;54.616;39.754;2023-03-23T13:03:41;13.05;;;9.07;;
74636;SDS011;63141;54.616;39.754;2023-03-23T13:06:50;13.77;;;8.55;;
74636;SDS011;63141;54.616;39.754;2023-03-23T13:12:56;13.38;;;8.85;;
74636;SDS011;63141;54.616;39.754;2023-03-23T13:16:03;16.13;;;10.43;;
74636;SDS011;63141;54.616;39.754;2023-03-23T13:22:17;16.52;;;10.07;;
74636;SDS011;63141;54.616;39.754;2023-03-23T13:28:59;16.45;;;11.27;;
74636;SDS011;63141;54.616;39.754;2023-03-23T13:32:15;19.88;;;12.45;;
74636;SDS011;63141;54.616;39.754;2023-03-23T13:35:18;19.98;;;12.23;;
74636;SDS011;63141;54.616;39.754;2023-03-23T13:38:25;24.65;;;12.82;;
74636;SDS011;63141;54.616;39.754;2023-03-23T13:41:29;21.95;;;13.95;;
74636;SDS011;63141;54.616;39.754;2023-03-23T13:44:55;20.27;;;12.50;;
74636;SDS011;63141;54.616;39.754;2023-03-23T13:54:50;22.35;;;12.70;;
74636;SDS011;63141;54.616;39.754;2023-03-23T13:57:56;23.27;;;14.23;;
74636;SDS011;63141;54.616;39.754;2023-03-23T14:01:19;22.02;;;14.00;;
74636;SDS011;63141;54.616;39.754;2023-03-23T14:04:42;19.30;;;12.68;;
74636;SDS011;63141;54.616;39.754;2023-03-23T14:07:56;21.55;;;12.98;;
74636;SDS011;63141;54.616;39.754;2023-03-23T14:11:19;21.38;;;13.98;;
74636;SDS011;63141;54.616;39.754;2023-03-23T14:14:27;23.75;;;14.43;;
74636;SDS011;63141;54.616;39.754;2023-03-23T14:20:41;23.23;;;13.70;;
74636;SDS011;63141;54.616;39.754;2023-03-23T14:23:46;20.02;;;12.32;;
74636;SDS011;63141;54.616;39.754;2023-03-23T14:26:47;19.67;;;12.40;;
74636;SDS011;63141;54.616;39.754;2023-03-23T14:29:59;15.88;;;11.68;;
74636;SDS011;63141;54.616;39.754;2023-03-23T14:33:06;18.63;;;11.77;;
74636;SDS011;63141;54.616;39.754;2023-03-23T14:36:09;17.27;;;11.63;;
74636;SDS011;63141;54.616;39.754;2023-03-23T14:42:38;19.65;;;12.23;;
74636;SDS011;63141;54.616;39.754;2023-03-23T14:45:40;17.33;;;10.90;;
74636;SDS011;63141;54.616;39.754;2023-03-23T14:48:42;18.67;;;12.10;;
74636;SDS011;63141;54.616;39.754;2023-03-23T14:51:47;18.90;;;11.93;;
74636;SDS011;63141;54.616;39.754;2023-03-23T14:54:50;19.63;;;10.95;;
74636;SDS011;63141;54.616;39.754;2023-03-23T14:57:51;19.98;;;11.80;;
74636;SDS011;63141;54.616;39.754;2023-03-23T15:00:55;18.92;;;11.00;;
74636;SDS011;63141;54.616;39.754;2023-03-23T15:04:20;18.63;;;11.73;;
74636;SDS011;63141;54.616;39.754;2023-03-23T15:07:26;19.88;;;11.77;;
74636;SDS011;63141;54.616;39.754;2023-03-23T15:10:30;18.67;;;11.73;;
74636;SDS011;63141;54.616;39.754;2023-03-23T15:13:32;18.23;;;11.82;;
74636;SDS011;63141;54.616;39.754;2023-03-23T15:16:36;18.02;;;11.48;;
74636;SDS011;63141;54.616;39.754;2023-03-23T15:19:40;21.75;;;13.38;;
74636;SDS011;63141;54.616;39.754;2023-03-23T15:22:47;21.25;;;13.77;;
74636;SDS011;63141;54.616;39.754;2023-03-23T15:25:50;21.13;;;13.63;;
74636;SDS011;63141;54.616;39.754;2023-03-23T15:32:10;23.08;;;14.50;;
74636;SDS011;63141;54.616;39.754;2023-03-23T15:35:13;21.98;;;13.75;;
74636;SDS011;63141;54.616;39.754;2023-03-23T15:38:28;24.20;;;14.10;;
74636;SDS011;63141;54.616;39.754;2023-03-23T15:41:32;25.15;;;14.18;;
74636;SDS011;63141;54.616;39.754;2023-03-23T15:44:36;23.50;;;13.95;;
74636;SDS011;63141;54.616;39.754;2023-03-23T15:50:42;22.45;;;14.50;;
74636;SDS011;63141;54.616;39.754;2023-03-23T15:53:47;22.50;;;14.50;;
74636;SDS011;63141;54.616;39.754;2023-03-23T15:56:50;21.38;;;14.02;;
74636;SDS011;63141;54.616;39.754;2023-03-23T15:59:52;24.75;;;14.13;;
74636;SDS011;63141;54.616;39.754;2023-03-23T16:02:57;21.55;;;12.07;;
74636;SDS011;63141;54.616;39.754;2023-03-23T16:06:09;20.98;;;11.32;;
74636;SDS011;63141;54.616;39.754;2023-03-23T16:09:16;20.42;;;10.23;;
74636;SDS011;63141;54.616;39.754;2023-03-23T16:15:20;16.67;;;9.98;;
74636;SDS011;63141;54.616;39.754;2023-03-23T16:18:22;20.85;;;10.30;;
74636;SDS011;63141;54.616;39.754;2023-03-23T16:21:23;21.17;;;10.00;;
74636;SDS011;63141;54.616;39.754;2023-03-23T16:24:24;14.85;;;9.32;;
74636;SDS011;63141;54.616;39.754;2023-03-23T16:27:26;16.73;;;8.68;;
74636;SDS011;63141;54.616;39.754;2023-03-23T16:30:27;19.73;;;10.55;;
74636;SDS011;63141;54.616;39.754;2023-03-23T16:33:33;19.90;;;10.50;;
74636;SDS011;63141;54.616;39.754;2023-03-23T16:36:34;15.82;;;10.35;;
74636;SDS011;63141;54.616;39.754;2023-03-23T16:39:36;13.70;;;8.45;;
74636;SDS011;63141;54.616;39.754;2023-03-23T16:42:37;14.75;;;8.80;;
74636;SDS011;63141;54.616;39.754;2023-03-23T16:45:39;14.13;;;8.93;;
74636;SDS011;63141;54.616;39.754;2023-03-23T16:48:42;13.40;;;8.65;;
74636;SDS011;63141;54.616;39.754;2023-03-23T16:51:43;13.57;;;8.90;;
74636;SDS011;63141;54.616;39.754;2023-03-23T16:54:45;11.93;;;8.20;;
74636;SDS011;63141;54.616;39.754;2023-03-23T16:57:46;13.45;;;8.43;;
74636;SDS011;63141;54.616;39.754;2023-03-23T17:00:48;15.80;;;8.30;;
74636;SDS011;63141;54.616;39.754;2023-03-23T17:03:56;11.90;;;7.85;;
74636;SDS011;63141;54.616;39.754;2023-03-23T17:06:58;12.57;;;8.50;;
74636;SDS011;63141;54.616;39.754;2023-03-23T17:10:00;11.40;;;7.55;;
74636;SDS011;63141;54.616;39.754;2023-03-23T17:13:01;11.80;;;7.60;;
74636;SDS011;63141;54.616;39.754;2023-03-23T17:16:03;12.40;;;7.82;;
74636;SDS011;63141;54.616;39.754;2023-03-23T17:19:04;12.63;;;7.65;;
74636;SDS011;63141;54.616;39.754;2023-03-23T17:22:07;11.85;;;7.53;;
74636;SDS011;63141;54.616;39.754;2023-03-23T17:25:08;18.95;;;8.50;;
74636;SDS011;63141;54.616;39.754;2023-03-23T17:28:10;17.13;;;8.35;;
74636;SDS011;63141;54.616;39.754;2023-03-23T17:31:11;14.00;;;7.88;;
74636;SDS011;63141;54.616;39.754;2023-03-23T17:34:13;17.38;;;8.00;;
74636;SDS011;63141;54.616;39.754;2023-03-23T17:37:15;14.05;;;7.57;;
74636;SDS011;63141;54.616;39.754;2023-03-23T17:40:17;15.65;;;8.02;;
74636;SDS011;63141;54.616;39.754;2023-03-23T17:43:18;17.25;;;7.50;;
74636;SDS011;63141;54.616;39.754;2023-03-23T17:46:19;14.52;;;7.25;;
74636;SDS011;63141;54.616;39.754;2023-03-23T17:49:21;14.57;;;7.18;;
74636;SDS011;63141;54.616;39.754;2023-03-23T17:52:23;13.07;;;7.30;;
74636;SDS011;63141;54.616;39.754;2023-03-23T17:55:25;13.90;;;7.38;;
74636;SDS011;63141;54.616;39.754;2023-03-23T17:58:26;14.70;;;7.45;;
74636;SDS011;63141;54.616;39.754;2023-03-23T18:01:28;11.70;;;7.18;;
74636;SDS011;63141;54.616;39.754;2023-03-23T18:04:34;15.55;;;7.85;;
74636;SDS011;63141;54.616;39.754;2023-03-23T18:07:36;10.50;;;6.10;;
74636;SDS011;63141;54.616;39.754;2023-03-23T18:10:38;12.82;;;6.82;;
74636;SDS011;63141;54.616;39.754;2023-03-23T18:13:40;13.52;;;6.97;;
74636;SDS011;63141;54.616;39.754;2023-03-23T18:16:42;12.25;;;6.95;;
74636;SDS011;63141;54.616;39.754;2023-03-23T18:19:43;9.75;;;6.57;;
74636;SDS011;63141;54.616;39.754;2023-03-23T18:22:46;10.50;;;6.63;;
74636;SDS011;63141;54.616;39.754;2023-03-23T18:25:49;11.98;;;6.75;;
74636;SDS011;63141;54.616;39.754;2023-03-23T18:28:53;12.80;;;6.95;;
74636;SDS011;63141;54.616;39.754;2023-03-23T18:31:56;11.75;;;6.07;;
74636;SDS011;63141;54.616;39.754;2023-03-23T18:34:57;12.07;;;6.82;;
74636;SDS011;63141;54.616;39.754;2023-03-23T18:37:58;12.02;;;6.53;;
74636;SDS011;63141;54.616;39.754;2023-03-23T18:41:00;10.77;;;6.38;;
74636;SDS011;63141;54.616;39.754;2023-03-23T18:44:01;11.63;;;6.38;;
74636;SDS011;63141;54.616;39.754;2023-03-23T18:47:02;11.00;;;6.95;;
74636;SDS011;63141;54.616;39.754;2023-03-23T18:50:08;11.05;;;6.25;;
74636;SDS011;63141;54.616;39.754;2023-03-23T18:53:11;14.00;;;6.35;;
74636;SDS011;63141;54.616;39.754;2023-03-23T18:56:15;9.43;;;6.03;;
74636;SDS011;63141;54.616;39.754;2023-03-23T18:59:18;11.93;;;5.97;;
74636;SDS011;63141;54.616;39.754;2023-03-23T19:02:19;9.90;;;6.03;;
74636;SDS011;63141;54.616;39.754;2023-03-23T19:05:26;11.85;;;5.97;;
74636;SDS011;63141;54.616;39.754;2023-03-23T19:08:28;11.65;;;5.85;;
74636;SDS011;63141;54.616;39.754;2023-03-23T19:11:30;7.35;;;5.10;;
74636;SDS011;63141;54.616;39.754;2023-03-23T19:14:32;10.00;;;6.30;;
74636;SDS011;63141;54.616;39.754;2023-03-23T19:17:35;9.38;;;5.65;;
74636;SDS011;63141;54.616;39.754;2023-03-23T19:20:37;10.02;;;5.65;;
74636;SDS011;63141;54.616;39.754;2023-03-23T19:23:38;9.75;;;5.75;;
74636;SDS011;63141;54.616;39.754;2023-03-23T19:26:40;11.55;;;5.75;;
74636;SDS011;63141;54.616;39.754;2023-03-23T19:29:43;7.90;;;5.32;;
74636;SDS011;63141;54.616;39.754;2023-03-23T19:32:44;7.97;;;5.20;;
74636;SDS011;63141;54.616;39.754;2023-03-23T19:35:49;7.47;;;5.13;;
74636;SDS011;63141;54.616;39.754;2023-03-23T19:38:52;9.45;;;5.20;;
74636;SDS011;63141;54.616;39.754;2023-03-23T19:41:57;8.55;;;5.30;;
74636;SDS011;63141;54.616;39.754;2023-03-23T19:44:59;5.75;;;4.80;;
74636;SDS011;63141;54.616;39.754;2023-03-23T19:48:01;7.28;;;4.88;;
74636;SDS011;63141;54.616;39.754;2023-03-23T19:51:03;7.18;;;4.90;;
74636;SDS011;63141;54.616;39.754;2023-03-23T19:54:05;7.40;;;4.88;;
74636;SDS011;63141;54.616;39.754;2023-03-23T19:57:09;7.43;;;4.45;;
74636;SDS011;63141;54.616;39.754;2023-03-23T20:00:14;6.50;;;4.45;;
74636;SDS011;63141;54.616;39.754;2023-03-23T20:03:15;6.43;;;4.63;;
74636;SDS011;63141;54.616;39.754;2023-03-23T20:06:19;6.28;;;4.45;;
74636;SDS011;63141;54.616;39.754;2023-03-23T20:09:20;7.05;;;4.32;;
74636;SDS011;63141;54.616;39.754;2023-03-23T20:12:22;5.60;;;4.30;;
74636;SDS011;63141;54.616;39.754;2023-03-23T20:15:23;6.28;;;4.53;;
74636;SDS011;63141;54.616;39.754;2023-03-23T20:18:25;6.03;;;4.18;;
74636;SDS011;63141;54.616;39.754;2023-03-23T20:21:26;8.60;;;4.28;;
74636;SDS011;63141;54.616;39.754;2023-03-23T20:24:28;6.20;;;3.90;;